createdAt,value
2022-11-16T00:01:02.931Z,8.93
2022-11-16T00:04:05.727Z,7.53
2022-11-16T00:07:08.712Z,8.63
2022-11-16T00:10:13.434Z,9.45
2022-11-16T00:13:16.247Z,8.73
2022-11-16T00:16:19.636Z,7.85
2022-11-16T00:19:22.430Z,9.45
2022-11-16T00:22:25.172Z,8.50
2022-11-16T00:25:29.440Z,7.55
2022-11-16T00:28:32.334Z,8.38
2022-11-16T00:31:35.283Z,9.27
2022-11-16T00:34:37.915Z,8.75
2022-11-16T00:37:40.553Z,8.73
2022-11-16T00:40:44.583Z,9.30
2022-11-16T00:43:47.206Z,8.18
2022-11-16T00:46:49.924Z,9.60
2022-11-16T00:49:52.809Z,8.30
2022-11-16T00:52:56.384Z,9.27
2022-11-16T00:56:05.180Z,8.35
2022-11-16T00:59:12.813Z,7.88
2022-11-16T01:02:20.420Z,5.57
2022-11-16T01:05:23.737Z,8.85
2022-11-16T01:08:28.019Z,7.88
2022-11-16T01:11:49.430Z,9.95
2022-11-16T01:14:52.106Z,9.10
2022-11-16T01:17:55.507Z,9.52
2022-11-16T01:20:58.171Z,8.40
2022-11-16T01:24:00.783Z,9.05
2022-11-16T01:27:05.108Z,8.73
2022-11-16T01:30:12.243Z,10.57
2022-11-16T01:33:18.838Z,9.13
2022-11-16T01:36:23.269Z,10.20
2022-11-16T01:39:26.263Z,8.60
2022-11-16T01:42:34.582Z,9.57
2022-11-16T01:45:39.535Z,9.75
2022-11-16T01:48:45.841Z,9.70
2022-11-16T01:51:52.183Z,10.07
2022-11-16T01:54:55.358Z,9.38
2022-11-16T01:58:02.768Z,10.02
2022-11-16T02:01:07.689Z,9.90
2022-11-16T02:04:17.739Z,9.65
2022-11-16T02:07:32.418Z,11.02
2022-11-16T02:10:40.659Z,9.10
2022-11-16T02:13:51.577Z,9.32
2022-11-16T02:16:59.064Z,10.13
2022-11-16T02:20:25.531Z,8.60
2022-11-16T02:23:44.348Z,10.57
2022-11-16T02:27:05.435Z,10.20
2022-11-16T02:30:09.990Z,9.88
2022-11-16T02:33:19.362Z,10.18
2022-11-16T02:36:23.244Z,9.15
2022-11-16T02:39:28.308Z,10.65
2022-11-16T02:42:35.013Z,8.35
2022-11-16T02:45:43.803Z,10.75
2022-11-16T02:48:47.978Z,9.63
2022-11-16T02:51:51.745Z,9.60
2022-11-16T02:54:55.837Z,10.27
2022-11-16T02:58:00.203Z,10.35
2022-11-16T03:01:08.520Z,9.30
2022-11-16T03:04:17.436Z,10.05
2022-11-16T03:07:23.800Z,9.65
2022-11-16T03:10:44.016Z,9.15
2022-11-16T03:13:47.799Z,9.05
2022-11-16T03:16:53.776Z,10.05
2022-11-16T03:20:00.228Z,10.25
2022-11-16T03:23:05.688Z,10.40
2022-11-16T03:26:10.971Z,9.82
2022-11-16T03:29:15.670Z,9.88
2022-11-16T03:32:21.657Z,9.35
2022-11-16T03:35:27.665Z,9.75
2022-11-16T03:38:31.040Z,9.02
2022-11-16T03:41:34.346Z,9.43
2022-11-16T03:44:37.647Z,8.32
2022-11-16T03:47:43.189Z,8.95
2022-11-16T03:50:46.439Z,8.30
2022-11-16T03:53:50.206Z,9.20
2022-11-16T03:56:53.928Z,8.68
2022-11-16T03:59:57.060Z,10.23
2022-11-16T04:03:01.908Z,8.20
2022-11-16T04:06:22.566Z,9.65
2022-11-16T04:09:43.209Z,10.15
2022-11-16T04:13:01.019Z,6.05
2022-11-16T04:16:21.422Z,9.52
2022-11-16T04:19:43.210Z,8.80
2022-11-16T04:23:08.280Z,7.93
2022-11-16T04:26:11.211Z,9.30
2022-11-16T04:29:13.230Z,9.05
2022-11-16T04:32:33.654Z,9.77
2022-11-16T04:35:55.380Z,9.15
2022-11-16T04:38:59.121Z,8.77
2022-11-16T04:42:21.685Z,9.90
2022-11-16T04:45:45.102Z,10.05
2022-11-16T04:48:47.820Z,9.25
2022-11-16T04:51:51.834Z,8.75
2022-11-16T04:54:54.521Z,9.07
2022-11-16T04:57:58.140Z,9.15
2022-11-16T05:01:02.118Z,8.30
2022-11-16T05:04:04.958Z,9.18
2022-11-16T05:07:11.104Z,9.07
2022-11-16T05:10:15.982Z,8.93
2022-11-16T05:13:19.226Z,6.85
2022-11-16T05:16:22.930Z,8.73
2022-11-16T05:19:43.361Z,8.18
2022-11-16T05:22:53.187Z,7.30
2022-11-16T05:25:56.909Z,9.40
2022-11-16T05:28:59.578Z,8.77
2022-11-16T05:32:02.649Z,9.27
2022-11-16T05:35:06.486Z,7.88
2022-11-16T05:38:10.574Z,6.85
2022-11-16T05:41:17.964Z,8.70
2022-11-16T05:44:20.940Z,7.50
2022-11-16T05:47:23.720Z,7.75
2022-11-16T05:50:26.817Z,7.40
2022-11-16T05:53:44.099Z,8.98
2022-11-16T05:56:49.933Z,8.60
2022-11-16T05:59:55.326Z,8.07
2022-11-16T06:02:58.662Z,5.90
2022-11-16T06:06:05.952Z,7.82
2022-11-16T06:09:12.263Z,8.00
2022-11-16T06:12:15.350Z,7.38
2022-11-16T06:15:18.271Z,5.50
2022-11-16T06:18:21.390Z,7.40
2022-11-16T06:21:25.782Z,7.82
2022-11-16T06:24:30.848Z,8.88
2022-11-16T06:27:34.524Z,7.22
2022-11-16T06:30:38.027Z,7.30
2022-11-16T06:33:41.259Z,7.50
2022-11-16T06:37:05.452Z,8.30
2022-11-16T06:40:10.845Z,7.90
2022-11-16T06:43:18.507Z,8.45
2022-11-16T06:46:21.210Z,8.60
2022-11-16T06:49:24.178Z,7.63
2022-11-16T06:52:28.943Z,6.95
2022-11-16T06:55:32.850Z,7.28
2022-11-16T06:58:36.428Z,7.78
2022-11-16T07:01:40.419Z,8.32
2022-11-16T07:04:47.779Z,8.15
2022-11-16T07:07:54.110Z,9.13
2022-11-16T07:11:04.256Z,7.85
2022-11-16T07:14:07.504Z,9.90
2022-11-16T07:17:10.121Z,8.63
2022-11-16T07:20:13.330Z,8.43
2022-11-16T07:23:16.734Z,9.23
2022-11-16T07:26:22.716Z,8.52
2022-11-16T07:29:32.042Z,8.52
2022-11-16T07:33:00.327Z,8.60
2022-11-16T07:36:22.781Z,7.28
2022-11-16T07:39:25.707Z,7.60
2022-11-16T07:42:31.472Z,9.30
2022-11-16T07:45:47.873Z,9.00
2022-11-16T07:48:51.497Z,8.73
2022-11-16T07:51:54.215Z,8.10
2022-11-16T07:55:25.580Z,8.48
2022-11-16T07:58:34.292Z,9.70
2022-11-16T08:01:39.215Z,9.15
2022-11-16T08:04:43.701Z,8.57
2022-11-16T08:07:47.413Z,8.15
2022-11-16T08:10:50.603Z,9.88
2022-11-16T08:14:04.010Z,6.35
2022-11-16T08:17:08.304Z,9.23
2022-11-16T08:20:35.026Z,8.10
2022-11-16T08:23:58.173Z,8.70
2022-11-16T08:31:10.423Z,7.88
2022-11-16T08:37:59.174Z,7.75
2022-11-16T08:41:06.298Z,8.35
2022-11-16T08:44:09.312Z,9.35
2022-11-16T08:47:15.204Z,10.35
2022-11-16T08:51:15.463Z,9.07
2022-11-16T08:54:26.451Z,9.98
2022-11-16T08:57:29.361Z,10.15
2022-11-16T09:00:35.337Z,10.02
2022-11-16T09:03:38.758Z,9.70
2022-11-16T09:06:43.803Z,6.70
2022-11-16T09:09:47.689Z,11.30
2022-11-16T09:12:51.810Z,9.73
2022-11-16T09:16:02.019Z,9.82
2022-11-16T09:24:34.521Z,9.05
2022-11-16T09:27:38.438Z,12.25
2022-11-16T09:30:43.068Z,12.07
2022-11-16T09:33:47.632Z,9.57
2022-11-16T09:36:50.229Z,10.55
2022-11-16T09:39:53.514Z,10.65
2022-11-16T09:43:01.909Z,11.57
2022-11-16T09:46:10.616Z,10.65
2022-11-16T09:53:18.966Z,11.52
2022-11-16T09:56:26.178Z,10.10
2022-11-16T09:59:41.282Z,11.30
2022-11-16T10:07:15.616Z,9.98
2022-11-16T10:10:22.487Z,10.02
2022-11-16T10:14:10.602Z,12.05
2022-11-16T10:17:27.408Z,12.13
2022-11-16T10:20:49.376Z,10.80
2022-11-16T10:24:03.486Z,8.02
2022-11-16T10:27:26.029Z,13.07
2022-11-16T10:30:28.813Z,11.43
2022-11-16T10:33:37.929Z,11.27
2022-11-16T10:36:41.586Z,11.27
2022-11-16T10:39:44.852Z,11.32
2022-11-16T10:42:59.928Z,13.25
2022-11-16T10:46:12.643Z,11.68
2022-11-16T10:49:22.086Z,10.65
2022-11-16T10:52:25.543Z,12.13
2022-11-16T10:55:29.957Z,3.92
2022-11-16T10:58:49.921Z,12.25
2022-11-16T11:01:57.956Z,11.48
2022-11-16T11:09:15.398Z,12.27
2022-11-16T11:12:36.813Z,11.27
2022-11-16T11:15:51.175Z,9.68
2022-11-16T11:18:54.434Z,12.18
2022-11-16T11:21:59.408Z,12.55
2022-11-16T11:25:06.694Z,11.52
2022-11-16T11:28:19.968Z,12.32
2022-11-16T11:31:36.054Z,11.85
2022-11-16T11:34:44.004Z,11.60
2022-11-16T11:37:52.853Z,11.82
2022-11-16T11:41:08.899Z,12.38
2022-11-16T11:44:27.330Z,11.80
2022-11-16T11:47:58.988Z,11.73
2022-11-16T11:51:13.366Z,11.00
2022-11-16T11:54:23.683Z,10.95
2022-11-16T11:57:29.636Z,9.25
2022-11-16T12:00:47.995Z,11.98
2022-11-16T12:04:13.041Z,11.98
2022-11-16T12:07:26.618Z,10.55
2022-11-16T12:10:39.813Z,12.40
2022-11-16T12:13:55.092Z,11.43
2022-11-16T12:17:01.420Z,11.95
2022-11-16T12:20:09.242Z,12.85
2022-11-16T12:23:25.868Z,12.07
2022-11-16T12:26:35.442Z,13.02
2022-11-16T12:29:49.430Z,12.25
2022-11-16T12:33:01.583Z,13.50
2022-11-16T12:36:09.645Z,11.23
2022-11-16T12:39:20.708Z,11.95
2022-11-16T12:42:36.533Z,10.93
2022-11-16T12:45:50.344Z,12.27
2022-11-16T12:49:20.472Z,10.88
2022-11-16T12:52:32.616Z,10.30
2022-11-16T12:55:46.182Z,11.05
2022-11-16T12:59:12.013Z,12.43
2022-11-16T13:02:29.039Z,10.48
2022-11-16T13:15:06.761Z,11.35
2022-11-16T13:18:18.422Z,9.82
2022-11-16T13:26:00.864Z,11.70
2022-11-16T13:29:32.722Z,12.15
2022-11-16T13:33:15.055Z,10.75
2022-11-16T13:36:37.315Z,10.80
2022-11-16T13:39:59.399Z,10.27
2022-11-16T13:43:21.572Z,11.05
2022-11-16T13:46:55.181Z,9.45
2022-11-16T13:50:01.480Z,10.25
2022-11-16T13:54:03.762Z,9.52
2022-11-16T13:56:54.933Z,9.68
2022-11-16T14:00:09.619Z,8.77
2022-11-16T14:03:33.131Z,8.30
2022-11-16T14:06:55.409Z,9.65
2022-11-16T14:09:59.211Z,9.57
2022-11-16T14:13:18.760Z,8.65
2022-11-16T14:16:55.403Z,8.32
2022-11-16T14:19:59.308Z,10.00
2022-11-16T14:23:12.433Z,9.32
2022-11-16T14:26:19.589Z,11.02
2022-11-16T14:29:51.945Z,9.50
2022-11-16T14:32:55.619Z,8.10
2022-11-16T14:36:00.943Z,10.20
2022-11-16T14:39:18.128Z,8.43
2022-11-16T14:42:22.494Z,8.07
2022-11-16T14:45:33.355Z,9.98
2022-11-16T14:48:43.108Z,6.72
2022-11-16T14:51:56.764Z,6.25
2022-11-16T14:55:01.675Z,6.43
2022-11-16T14:58:12.051Z,7.38
2022-11-16T15:01:15.768Z,7.07
2022-11-16T15:04:19.161Z,7.75
2022-11-16T15:07:25.249Z,6.70
2022-11-16T15:10:29.331Z,6.85
2022-11-16T15:13:33.892Z,6.25
2022-11-16T15:16:50.175Z,6.30
2022-11-16T15:19:57.232Z,5.82
2022-11-16T15:23:05.260Z,4.35
2022-11-16T15:26:08.023Z,5.65
2022-11-16T15:29:16.479Z,6.03
2022-11-16T15:32:19.113Z,6.13
2022-11-16T15:35:22.599Z,6.47
2022-11-16T15:38:27.397Z,4.65
2022-11-16T15:41:32.366Z,5.65
2022-11-16T15:44:38.808Z,5.68
2022-11-16T15:47:41.784Z,6.00
2022-11-16T15:54:30.199Z,5.25
2022-11-16T15:57:34.042Z,4.65
2022-11-16T16:00:38.192Z,4.75
2022-11-16T16:03:46.102Z,3.58
2022-11-16T16:06:50.381Z,4.80
2022-11-16T16:10:12.930Z,4.28
2022-11-16T16:13:25.076Z,5.05
2022-11-16T16:16:31.728Z,4.88
2022-11-16T16:19:36.947Z,5.07
2022-11-16T16:22:39.473Z,5.00
2022-11-16T16:25:49.060Z,5.43
2022-11-16T16:29:21.647Z,3.03
2022-11-16T16:32:25.689Z,4.57
2022-11-16T16:35:28.322Z,3.17
2022-11-16T16:39:10.310Z,3.35
2022-11-16T16:42:15.296Z,4.55
2022-11-16T16:45:28.105Z,4.95
2022-11-16T16:48:30.932Z,5.03
2022-11-16T16:51:33.459Z,3.40
2022-11-16T16:54:35.909Z,4.38
2022-11-16T16:57:39.747Z,4.93
2022-11-16T17:00:42.405Z,4.10
2022-11-16T17:03:44.972Z,4.43
2022-11-16T17:06:47.920Z,4.53
2022-11-16T17:09:51.346Z,4.07
2022-11-16T17:12:55.564Z,4.88
2022-11-16T17:16:04.658Z,4.57
2022-11-16T17:19:07.111Z,4.82
2022-11-16T17:22:10.117Z,4.05
2022-11-16T17:25:19.665Z,4.65
2022-11-16T17:28:23.570Z,4.53
2022-11-16T17:31:27.819Z,4.78
2022-11-16T17:34:31.196Z,4.88
2022-11-16T17:37:33.684Z,4.28
2022-11-16T17:40:36.669Z,4.57
2022-11-16T17:43:40.969Z,4.60
2022-11-16T17:46:44.238Z,4.22
2022-11-16T17:49:47.211Z,3.95
2022-11-16T17:52:49.680Z,2.85
2022-11-16T17:55:52.157Z,3.97
2022-11-16T17:58:58.096Z,4.63
2022-11-16T18:02:00.515Z,4.13
2022-11-16T18:05:08.011Z,3.03
2022-11-16T18:08:10.778Z,3.95
2022-11-16T18:11:14.028Z,4.45
2022-11-16T18:14:17.889Z,4.18
2022-11-16T18:17:20.313Z,4.93
2022-11-16T18:20:24.226Z,4.80
2022-11-16T18:23:27.193Z,4.70
2022-11-16T18:26:32.828Z,4.60
2022-11-16T18:29:43.378Z,4.90
2022-11-16T18:32:47.475Z,4.72
2022-11-16T18:35:50.710Z,4.65
2022-11-16T18:38:53.505Z,4.60
2022-11-16T18:41:56.536Z,5.35
2022-11-16T18:45:04.803Z,4.70
2022-11-16T18:48:08.076Z,3.88
2022-11-16T18:51:11.408Z,4.22
2022-11-16T18:54:14.391Z,4.35
2022-11-16T18:57:16.987Z,4.32
2022-11-16T19:00:21.274Z,3.88
2022-11-16T19:03:24.098Z,5.60
2022-11-16T19:06:32.246Z,4.45
2022-11-16T19:09:34.907Z,5.13
2022-11-16T19:12:41.353Z,4.38
2022-11-16T19:15:45.474Z,3.40
2022-11-16T19:18:48.557Z,4.07
2022-11-16T19:21:51.870Z,3.97
2022-11-16T19:24:54.437Z,3.47
2022-11-16T19:27:56.983Z,3.38
2022-11-16T19:31:06.393Z,2.55
2022-11-16T19:34:11.559Z,3.53
2022-11-16T19:37:14.996Z,4.15
2022-11-16T19:40:24.706Z,3.17
2022-11-16T19:43:29.141Z,2.85
2022-11-16T19:46:36.257Z,3.08
2022-11-16T19:49:39.361Z,2.28
2022-11-16T19:52:43.447Z,2.35
2022-11-16T19:55:53.595Z,2.33
2022-11-16T19:58:57.362Z,2.58
2022-11-16T20:02:01.286Z,2.40
2022-11-16T20:05:04.116Z,1.42
2022-11-16T20:08:15.723Z,2.33
2022-11-16T20:11:20.514Z,2.58
2022-11-16T20:14:24.035Z,2.83
2022-11-16T20:17:28.390Z,2.92
2022-11-16T20:20:31.730Z,2.33
2022-11-16T20:23:35.556Z,2.53
2022-11-16T20:26:53.074Z,2.05
2022-11-16T20:29:58.708Z,2.50
2022-11-16T20:33:02.807Z,1.67
2022-11-16T20:36:18.655Z,2.17
2022-11-16T20:39:22.152Z,1.92
2022-11-16T20:42:28.102Z,1.50
2022-11-16T20:45:33.228Z,2.10
2022-11-16T20:48:37.581Z,2.28
2022-11-16T20:51:45.838Z,2.42
2022-11-16T20:54:49.161Z,1.52
2022-11-16T20:57:57.711Z,2.15
2022-11-16T21:01:02.351Z,1.90
2022-11-16T21:04:17.562Z,1.38
2022-11-16T21:07:25.899Z,1.95
2022-11-16T21:10:57.208Z,1.85
2022-11-16T21:14:18.166Z,1.83
2022-11-16T21:17:22.317Z,2.08
2022-11-16T21:20:31.799Z,1.50
2022-11-16T21:23:56.478Z,1.10
2022-11-16T21:27:03.278Z,1.50
2022-11-16T21:30:14.960Z,1.23
2022-11-16T21:33:48.414Z,1.45
2022-11-16T21:37:00.070Z,1.70
2022-11-16T21:40:03.147Z,1.20
2022-11-16T21:43:06.071Z,1.40
2022-11-16T21:46:11.736Z,1.70
2022-11-16T21:49:18.170Z,1.25
2022-11-16T21:52:22.854Z,1.42
2022-11-16T21:55:37.541Z,1.02
2022-11-16T21:58:43.767Z,1.17
2022-11-16T22:02:07.140Z,1.15
2022-11-16T22:05:30.608Z,1.20
2022-11-16T22:08:52.595Z,1.10
2022-11-16T22:12:02.423Z,1.00
2022-11-16T22:15:07.895Z,1.25
2022-11-16T22:18:10.556Z,1.45
2022-11-16T22:21:13.064Z,1.08
2022-11-16T22:24:17.009Z,0.80
2022-11-16T22:27:19.839Z,1.20
2022-11-16T22:30:30.809Z,0.50
2022-11-16T22:33:33.702Z,0.80
2022-11-16T22:36:43.991Z,1.08
2022-11-16T22:39:47.842Z,1.10
2022-11-16T22:42:50.614Z,0.70
2022-11-16T22:45:57.352Z,1.48
2022-11-16T22:49:00.119Z,0.95
2022-11-16T22:52:03.128Z,1.20
2022-11-16T22:55:08.996Z,0.95
2022-11-16T22:58:11.479Z,1.58
2022-11-16T23:01:14.138Z,1.65
2022-11-16T23:04:19.522Z,1.08
2022-11-16T23:07:28.088Z,1.25
2022-11-16T23:10:52.400Z,1.30
2022-11-16T23:14:15.874Z,1.30
2022-11-16T23:17:20.286Z,1.25
2022-11-16T23:20:41.020Z,1.27
2022-11-16T23:24:01.297Z,1.02
2022-11-16T23:27:23.337Z,1.27
2022-11-16T23:30:26.161Z,1.38
2022-11-16T23:33:42.673Z,1.23
2022-11-16T23:36:56.080Z,0.60
2022-11-16T23:39:58.949Z,1.52
2022-11-16T23:43:20.889Z,1.30
2022-11-16T23:46:23.698Z,1.27
2022-11-16T23:49:26.261Z,1.23
2022-11-16T23:52:28.977Z,1.20
2022-11-16T23:55:33.038Z,1.40
2022-11-16T23:58:37.095Z,1.50
